createdAt,value
2019-01-10T00:01:18.426Z,100.00
2019-01-10T00:03:59.759Z,100.00
2019-01-10T00:06:40.229Z,100.00
2019-01-10T00:09:20.911Z,100.00
2019-01-10T00:12:02.068Z,100.00
2019-01-10T00:14:42.228Z,100.00
2019-01-10T00:17:23.059Z,100.00
2019-01-10T00:20:03.895Z,100.00
2019-01-10T00:22:44.938Z,100.00
2019-01-10T00:25:25.587Z,100.00
2019-01-10T00:28:06.163Z,100.00
2019-01-10T00:30:46.753Z,100.00
2019-01-10T00:33:27.684Z,100.00
2019-01-10T00:36:08.263Z,100.00
2019-01-10T00:38:49.145Z,100.00
2019-01-10T00:41:30.303Z,100.00
2019-01-10T00:44:11.184Z,100.00
2019-01-10T00:46:51.954Z,100.00
2019-01-10T00:49:32.544Z,100.00
2019-01-10T00:52:12.990Z,100.00
2019-01-10T00:54:53.850Z,100.00
2019-01-10T00:57:34.705Z,100.00
2019-01-10T01:00:16.322Z,100.00
2019-01-10T01:02:57.222Z,100.00
2019-01-10T01:05:37.939Z,100.00
2019-01-10T01:08:18.411Z,100.00
2019-01-10T01:10:59.678Z,100.00
2019-01-10T01:13:40.252Z,100.00
2019-01-10T01:16:22.135Z,100.00
2019-01-10T01:19:02.502Z,100.00
2019-01-10T01:21:43.674Z,100.00
2019-01-10T01:24:24.386Z,100.00
2019-01-10T01:27:05.145Z,100.00
2019-01-10T01:29:46.098Z,100.00
2019-01-10T01:32:26.495Z,100.00
2019-01-10T01:35:07.904Z,100.00
2019-01-10T01:37:48.522Z,100.00
2019-01-10T01:40:29.584Z,100.00
2019-01-10T01:43:09.863Z,100.00
2019-01-10T01:45:50.494Z,100.00
2019-01-10T01:48:31.366Z,100.00
2019-01-10T01:51:12.389Z,100.00
2019-01-10T01:53:53.103Z,100.00
2019-01-10T01:56:33.905Z,100.00
2019-01-10T01:59:14.425Z,100.00
2019-01-10T02:01:55.324Z,100.00
2019-01-10T02:04:36.285Z,100.00
2019-01-10T02:07:17.064Z,100.00
2019-01-10T02:09:57.820Z,100.00
2019-01-10T02:12:39.076Z,100.00
2019-01-10T02:15:20.066Z,100.00
2019-01-10T02:18:01.619Z,100.00
2019-01-10T02:20:42.075Z,100.00
2019-01-10T02:23:22.985Z,100.00
2019-01-10T02:26:03.557Z,100.00
2019-01-10T02:28:44.357Z,100.00
2019-01-10T02:31:25.507Z,100.00
2019-01-10T02:34:06.747Z,100.00
2019-01-10T02:36:47.157Z,100.00
2019-01-10T02:39:28.119Z,100.00
2019-01-10T02:42:09.186Z,98.19
2019-01-10T02:44:50.268Z,94.51
2019-01-10T02:47:31.145Z,90.97
2019-01-10T02:50:12.125Z,86.71
2019-01-10T02:52:52.901Z,80.21
2019-01-10T02:55:33.791Z,81.29
2019-01-10T02:58:14.588Z,80.25
2019-01-10T03:00:54.894Z,78.79
2019-01-10T03:03:35.777Z,76.89
2019-01-10T03:06:16.265Z,74.58
2019-01-10T03:08:57.113Z,72.50
2019-01-10T03:11:37.323Z,72.02
2019-01-10T03:14:18.584Z,71.44
2019-01-10T03:16:59.725Z,68.89
2019-01-10T03:19:40.353Z,65.09
2019-01-10T03:22:21.141Z,66.84
2019-01-10T03:25:02.363Z,64.12
2019-01-10T03:27:42.477Z,66.51
2019-01-10T03:30:24.023Z,63.18
2019-01-10T03:33:05.036Z,62.84
2019-01-10T03:35:46.269Z,64.00
2019-01-10T03:38:26.398Z,64.14
2019-01-10T03:41:07.061Z,60.00
2019-01-10T03:43:47.938Z,58.13
2019-01-10T03:46:29.450Z,56.62
2019-01-10T03:49:10.899Z,57.59
2019-01-10T03:51:52.666Z,56.89
2019-01-10T03:54:33.638Z,60.06
2019-01-10T03:57:14.557Z,59.75
2019-01-10T03:59:55.310Z,56.46
2019-01-10T04:02:36.392Z,56.28
2019-01-10T04:05:17.191Z,52.51
2019-01-10T04:07:58.207Z,52.18
2019-01-10T04:10:38.879Z,53.51
2019-01-10T04:13:19.722Z,55.02
2019-01-10T04:16:00.110Z,51.04
2019-01-10T04:18:40.866Z,50.82
2019-01-10T04:21:21.069Z,51.78
2019-01-10T04:24:02.105Z,55.43
2019-01-10T04:26:42.946Z,51.61
2019-01-10T04:29:23.961Z,51.59
2019-01-10T04:32:04.837Z,47.93
2019-01-10T04:34:46.130Z,50.49
2019-01-10T04:37:27.177Z,47.15
2019-01-10T04:40:08.493Z,46.84
2019-01-10T04:42:49.468Z,46.58
2019-01-10T04:45:29.866Z,46.32
2019-01-10T04:48:10.984Z,46.16
2019-01-10T04:50:51.552Z,45.17
2019-01-10T04:53:32.565Z,42.97
2019-01-10T04:56:13.481Z,42.37
2019-01-10T04:58:54.263Z,43.95
2019-01-10T05:01:34.503Z,43.71
2019-01-10T05:04:15.192Z,43.17
2019-01-10T05:06:55.069Z,43.67
2019-01-10T05:09:35.383Z,43.21
2019-01-10T05:12:16.141Z,44.81
2019-01-10T05:14:56.633Z,44.80
2019-01-10T05:17:37.794Z,45.64
2019-01-10T05:20:17.841Z,45.00
2019-01-10T05:22:57.997Z,44.91
2019-01-10T05:25:38.745Z,47.15
2019-01-10T05:28:19.321Z,44.63
2019-01-10T05:30:59.783Z,45.47
2019-01-10T05:33:40.112Z,46.54
2019-01-10T05:36:20.835Z,47.50
2019-01-10T05:39:01.152Z,43.25
2019-01-10T05:41:41.269Z,47.50
2019-01-10T05:44:26.592Z,44.64
2019-01-10T05:47:02.462Z,42.61
2019-01-10T05:49:42.599Z,41.92
2019-01-10T05:52:22.654Z,43.30
2019-01-10T05:55:03.224Z,42.51
2019-01-10T05:57:43.266Z,41.28
2019-01-10T06:00:23.463Z,43.56
2019-01-10T06:03:03.592Z,41.53
2019-01-10T06:05:44.084Z,43.47
2019-01-10T06:08:25.218Z,42.62
2019-01-10T06:11:05.808Z,42.82
2019-01-10T06:13:46.745Z,44.18
2019-01-10T06:16:28.512Z,42.88
2019-01-10T06:19:09.411Z,41.20
2019-01-10T06:21:50.743Z,42.97
2019-01-10T06:24:31.794Z,42.66
2019-01-10T06:27:12.676Z,43.53
2019-01-10T06:29:53.148Z,41.19
2019-01-10T06:32:33.671Z,41.47
2019-01-10T06:38:00.993Z,42.79
2019-01-10T06:40:42.265Z,42.60
2019-01-10T06:43:23.314Z,40.43
2019-01-10T06:46:04.200Z,41.71
2019-01-10T06:48:44.587Z,42.00
2019-01-10T06:51:25.285Z,41.70
2019-01-10T06:54:05.868Z,40.81
2019-01-10T06:56:46.755Z,39.68
2019-01-10T06:59:27.543Z,39.00
2019-01-10T07:02:12.205Z,42.57
2019-01-10T07:04:53.346Z,39.86
2019-01-10T07:07:33.916Z,39.84
2019-01-10T07:10:14.788Z,41.13
2019-01-10T07:12:55.427Z,42.01
2019-01-10T07:15:35.719Z,42.21
2019-01-10T07:18:16.559Z,41.30
2019-01-10T07:20:57.363Z,39.09
2019-01-10T07:23:37.907Z,39.36
2019-01-10T07:26:18.361Z,41.50
2019-01-10T07:28:58.663Z,38.90
2019-01-10T07:31:38.991Z,40.25
2019-01-10T07:34:19.474Z,39.62
2019-01-10T07:36:59.713Z,40.99
2019-01-10T07:39:40.276Z,40.28
2019-01-10T07:42:20.718Z,41.67
2019-01-10T07:45:02.766Z,39.85
2019-01-10T07:47:43.073Z,41.01
2019-01-10T07:50:23.753Z,41.27
2019-01-10T07:53:04.230Z,42.38
2019-01-10T07:55:44.426Z,41.62
2019-01-10T07:58:25.352Z,41.52
2019-01-10T08:01:05.711Z,40.56
2019-01-10T08:03:46.467Z,42.31
2019-01-10T08:06:26.834Z,41.33
2019-01-10T08:09:08.353Z,42.23
2019-01-10T08:11:48.548Z,43.04
2019-01-10T08:14:28.908Z,40.30
2019-01-10T08:17:15.929Z,41.28
2019-01-10T08:19:51.704Z,40.62
2019-01-10T08:22:32.988Z,40.06
2019-01-10T08:25:13.347Z,40.55
2019-01-10T08:27:53.972Z,41.54
2019-01-10T08:30:34.984Z,42.80
2019-01-10T08:33:15.963Z,42.23
2019-01-10T08:35:56.826Z,41.69
2019-01-10T08:38:37.787Z,41.30
2019-01-10T08:41:18.754Z,40.34
2019-01-10T08:44:00.023Z,40.96
2019-01-10T08:46:40.792Z,42.72
2019-01-10T08:49:21.944Z,41.77
2019-01-10T08:52:02.985Z,42.12
2019-01-10T08:54:43.335Z,42.03
2019-01-10T08:57:24.343Z,40.67
2019-01-10T09:00:05.585Z,41.52
2019-01-10T09:02:47.065Z,42.77
2019-01-10T09:05:27.735Z,43.89
2019-01-10T09:08:08.732Z,43.38
2019-01-10T09:10:49.946Z,40.66
2019-01-10T09:13:31.234Z,42.10
2019-01-10T09:16:12.144Z,42.77
2019-01-10T09:18:53.233Z,43.02
2019-01-10T09:21:33.787Z,45.10
2019-01-10T09:24:14.584Z,43.95
2019-01-10T09:26:55.707Z,44.56
2019-01-10T09:29:36.705Z,43.05
2019-01-10T09:32:17.797Z,45.35
2019-01-10T09:34:58.905Z,43.44
2019-01-10T09:37:40.198Z,45.45
2019-01-10T09:40:21.784Z,45.23
2019-01-10T09:43:03.114Z,44.66
2019-01-10T09:45:44.026Z,44.44
2019-01-10T09:48:25.638Z,45.49
2019-01-10T09:51:06.134Z,44.90
2019-01-10T09:53:47.313Z,46.43
2019-01-10T09:56:28.571Z,46.31
2019-01-10T09:59:09.743Z,47.57
2019-01-10T10:01:51.390Z,45.77
2019-01-10T10:04:32.426Z,46.18
2019-01-10T10:07:13.741Z,47.93
2019-01-10T10:09:54.588Z,45.50
2019-01-10T10:12:35.701Z,47.66
2019-01-10T10:15:16.904Z,48.12
2019-01-10T10:17:57.793Z,48.32
2019-01-10T10:20:38.673Z,47.21
2019-01-10T10:23:26.703Z,47.73
2019-01-10T10:26:01.387Z,48.42
2019-01-10T10:28:42.909Z,49.77
2019-01-10T10:31:24.186Z,49.56
2019-01-10T10:34:05.465Z,50.92
2019-01-10T10:36:46.755Z,51.05
2019-01-10T10:39:27.711Z,52.10
2019-01-10T10:42:09.186Z,53.14
2019-01-10T10:44:50.022Z,54.03
2019-01-10T10:47:30.824Z,54.91
2019-01-10T10:50:11.746Z,56.31
2019-01-10T10:52:52.697Z,57.91
2019-01-10T10:55:33.186Z,59.63
2019-01-10T10:58:14.349Z,60.79
2019-01-10T11:00:55.437Z,61.32
2019-01-10T11:03:36.429Z,61.56
2019-01-10T11:06:17.354Z,63.22
2019-01-10T11:08:58.597Z,64.12
2019-01-10T11:11:39.386Z,64.11
2019-01-10T11:14:20.587Z,65.83
2019-01-10T11:17:01.802Z,66.48
2019-01-10T11:19:43.065Z,67.94
2019-01-10T11:22:24.065Z,69.41
2019-01-10T11:25:04.824Z,70.61
2019-01-10T11:27:45.794Z,71.89
2019-01-10T11:30:27.235Z,72.54
2019-01-10T11:33:08.260Z,72.91
2019-01-10T11:35:48.825Z,73.25
2019-01-10T11:38:29.914Z,75.91
2019-01-10T11:41:11.384Z,76.38
2019-01-10T11:43:52.296Z,78.36
2019-01-10T11:46:33.470Z,79.59
2019-01-10T11:49:14.042Z,79.93
2019-01-10T11:51:54.549Z,82.46
2019-01-10T11:54:35.459Z,82.70
2019-01-10T11:57:16.831Z,84.83
2019-01-10T11:59:57.597Z,85.21
2019-01-10T12:02:38.477Z,85.74
2019-01-10T12:05:18.775Z,86.10
2019-01-10T12:08:00.357Z,86.99
2019-01-10T12:10:41.266Z,87.16
2019-01-10T12:13:21.948Z,87.88
2019-01-10T12:16:02.920Z,87.71
2019-01-10T12:18:43.703Z,88.49
2019-01-10T12:21:24.864Z,89.08
2019-01-10T12:24:05.192Z,89.05
2019-01-10T12:26:45.506Z,89.03
2019-01-10T12:29:25.994Z,90.21
2019-01-10T12:32:06.554Z,89.43
2019-01-10T12:34:47.382Z,90.47
2019-01-10T12:37:27.884Z,90.12
2019-01-10T12:40:08.142Z,90.70
2019-01-10T12:42:48.224Z,90.43
2019-01-10T12:45:28.635Z,90.48
2019-01-10T12:48:11.257Z,91.61
2019-01-10T12:50:51.301Z,90.88
2019-01-10T12:53:31.624Z,91.74
2019-01-10T12:56:11.870Z,91.43
2019-01-10T12:58:51.986Z,91.05
2019-01-10T13:01:32.713Z,90.90
2019-01-10T13:04:13.153Z,91.75
2019-01-10T13:06:53.196Z,91.58
2019-01-10T13:09:33.574Z,92.64
2019-01-10T13:12:13.828Z,92.17
2019-01-10T13:14:55.069Z,92.73
2019-01-10T13:17:35.162Z,92.36
2019-01-10T13:20:16.309Z,92.72
2019-01-10T13:22:56.428Z,93.16
2019-01-10T13:25:37.952Z,93.56
2019-01-10T13:28:18.749Z,94.23
2019-01-10T13:30:59.008Z,94.91
2019-01-10T13:33:42.229Z,94.67
2019-01-10T13:36:22.551Z,95.33
2019-01-10T13:41:52.744Z,95.30
2019-01-10T13:44:32.877Z,95.76
2019-01-10T13:47:13.018Z,95.87
2019-01-10T13:49:53.672Z,96.35
2019-01-10T13:52:34.028Z,96.51
2019-01-10T13:55:14.400Z,96.62
2019-01-10T13:57:55.023Z,96.98
2019-01-10T14:00:37.270Z,97.25
2019-01-10T14:03:17.864Z,97.32
2019-01-10T14:05:58.187Z,97.62
2019-01-10T14:08:38.313Z,98.53
2019-01-10T14:11:19.237Z,98.23
2019-01-10T14:13:59.594Z,97.81
2019-01-10T14:16:39.716Z,98.36
2019-01-10T14:19:22.234Z,98.48
2019-01-10T14:22:07.505Z,98.60
2019-01-10T14:24:50.125Z,98.39
2019-01-10T14:27:30.713Z,98.10
2019-01-10T14:30:12.466Z,98.29
2019-01-10T14:32:52.827Z,98.43
2019-01-10T14:35:32.834Z,98.79
2019-01-10T14:38:12.671Z,99.34
2019-01-10T14:40:53.095Z,99.65
2019-01-10T14:43:33.519Z,98.91
2019-01-10T14:46:13.750Z,99.55
2019-01-10T14:48:53.992Z,99.40
2019-01-10T14:51:34.033Z,99.41
2019-01-10T14:54:16.079Z,99.48
2019-01-10T14:59:33.554Z,99.41
2019-01-10T15:04:55.634Z,100.00
2019-01-10T15:07:25.391Z,100.00
2019-01-10T15:09:54.601Z,100.00
2019-01-10T15:12:28.622Z,100.00
2019-01-10T15:15:01.249Z,100.00
2019-01-10T15:17:32.469Z,100.00
2019-01-10T15:22:50.040Z,100.00
2019-01-10T15:25:22.837Z,100.00
2019-01-10T15:27:55.089Z,100.00
2019-01-10T15:30:25.909Z,100.00
2019-01-10T15:32:58.505Z,100.00
2019-01-10T16:01:07.787Z,100.00
2019-01-10T16:18:52.156Z,100.00
2019-01-10T16:54:32.351Z,100.00
2019-01-10T17:02:07.217Z,100.00
2019-01-10T17:04:38.824Z,100.00
2019-01-10T17:37:40.195Z,100.00
2019-01-10T18:51:22.354Z,100.00
